sensor_id;sensor_type;location;lat;lon;timestamp;P1;durP1;ratioP1;P2;durP2;ratioP2
46457;SDS011;32155;54.076;12.092;2023-03-22T00:00:12;82.38;;;41.33;;
46457;SDS011;32155;54.076;12.092;2023-03-22T00:02:41;81.70;;;41.92;;
46457;SDS011;32155;54.076;12.092;2023-03-22T00:05:07;83.22;;;43.92;;
46457;SDS011;32155;54.076;12.092;2023-03-22T00:07:33;80.40;;;41.95;;
46457;SDS011;32155;54.076;12.092;2023-03-22T00:09:59;82.95;;;43.13;;
46457;SDS011;32155;54.076;12.092;2023-03-22T00:12:25;78.85;;;43.38;;
46457;SDS011;32155;54.076;12.092;2023-03-22T00:14:51;79.70;;;43.28;;
46457;SDS011;32155;54.076;12.092;2023-03-22T00:17:21;85.05;;;42.47;;
46457;SDS011;32155;54.076;12.092;2023-03-22T00:19:47;81.68;;;43.83;;
46457;SDS011;32155;54.076;12.092;2023-03-22T00:22:13;84.38;;;43.17;;
46457;SDS011;32155;54.076;12.092;2023-03-22T00:24:40;88.35;;;45.08;;
46457;SDS011;32155;54.076;12.092;2023-03-22T00:27:05;80.78;;;43.33;;
46457;SDS011;32155;54.076;12.092;2023-03-22T00:29:31;77.35;;;42.75;;
46457;SDS011;32155;54.076;12.092;2023-03-22T00:31:56;77.65;;;42.88;;
46457;SDS011;32155;54.076;12.092;2023-03-22T00:34:25;79.63;;;42.33;;
46457;SDS011;32155;54.076;12.092;2023-03-22T00:36:55;79.63;;;43.58;;
46457;SDS011;32155;54.076;12.092;2023-03-22T00:39:20;82.70;;;44.75;;
46457;SDS011;32155;54.076;12.092;2023-03-22T00:41:46;78.13;;;42.00;;
46457;SDS011;32155;54.076;12.092;2023-03-22T00:44:11;80.45;;;42.58;;
46457;SDS011;32155;54.076;12.092;2023-03-22T00:46:37;74.68;;;41.75;;
46457;SDS011;32155;54.076;12.092;2023-03-22T00:49:03;78.28;;;43.95;;
46457;SDS011;32155;54.076;12.092;2023-03-22T00:51:29;76.28;;;43.50;;
46457;SDS011;32155;54.076;12.092;2023-03-22T00:53:54;76.70;;;42.47;;
46457;SDS011;32155;54.076;12.092;2023-03-22T00:56:20;76.68;;;41.90;;
46457;SDS011;32155;54.076;12.092;2023-03-22T00:58:47;79.07;;;42.58;;
46457;SDS011;32155;54.076;12.092;2023-03-22T01:01:13;72.82;;;41.83;;
46457;SDS011;32155;54.076;12.092;2023-03-22T01:03:41;73.20;;;41.80;;
46457;SDS011;32155;54.076;12.092;2023-03-22T01:06:07;79.47;;;43.88;;
46457;SDS011;32155;54.076;12.092;2023-03-22T01:08:33;86.65;;;44.65;;
46457;SDS011;32155;54.076;12.092;2023-03-22T01:11:02;76.07;;;42.08;;
46457;SDS011;32155;54.076;12.092;2023-03-22T01:13:28;81.22;;;44.15;;
46457;SDS011;32155;54.076;12.092;2023-03-22T01:15:54;81.10;;;43.40;;
46457;SDS011;32155;54.076;12.092;2023-03-22T01:18:20;83.63;;;45.33;;
46457;SDS011;32155;54.076;12.092;2023-03-22T01:20:46;87.95;;;45.45;;
46457;SDS011;32155;54.076;12.092;2023-03-22T01:23:11;87.65;;;44.95;;
46457;SDS011;32155;54.076;12.092;2023-03-22T01:25:37;89.93;;;45.50;;
46457;SDS011;32155;54.076;12.092;2023-03-22T01:28:10;89.22;;;47.78;;
46457;SDS011;32155;54.076;12.092;2023-03-22T01:30:37;88.25;;;47.58;;
46457;SDS011;32155;54.076;12.092;2023-03-22T01:33:03;96.63;;;48.78;;
46457;SDS011;32155;54.076;12.092;2023-03-22T01:35:31;94.07;;;50.22;;
46457;SDS011;32155;54.076;12.092;2023-03-22T01:37:58;90.28;;;49.15;;
46457;SDS011;32155;54.076;12.092;2023-03-22T01:40:23;107.13;;;51.28;;
46457;SDS011;32155;54.076;12.092;2023-03-22T01:42:52;95.22;;;50.35;;
46457;SDS011;32155;54.076;12.092;2023-03-22T01:48:12;105.30;;;52.17;;
46457;SDS011;32155;54.076;12.092;2023-03-22T01:51:25;102.15;;;52.38;;
46457;SDS011;32155;54.076;12.092;2023-03-22T01:53:43;95.37;;;49.40;;
46457;SDS011;32155;54.076;12.092;2023-03-22T01:56:12;105.82;;;52.92;;
46457;SDS011;32155;54.076;12.092;2023-03-22T01:58:41;97.47;;;52.15;;
46457;SDS011;32155;54.076;12.092;2023-03-22T02:01:07;111.05;;;51.53;;
46457;SDS011;32155;54.076;12.092;2023-03-22T02:06:37;107.60;;;53.38;;
46457;SDS011;32155;54.076;12.092;2023-03-22T02:09:10;101.85;;;52.00;;
46457;SDS011;32155;54.076;12.092;2023-03-22T02:11:40;105.07;;;50.53;;
46457;SDS011;32155;54.076;12.092;2023-03-22T02:17:08;98.22;;;50.08;;
46457;SDS011;32155;54.076;12.092;2023-03-22T02:42:54;104.05;;;52.70;;
46457;SDS011;32155;54.076;12.092;2023-03-22T02:45:33;100.47;;;50.85;;
46457;SDS011;32155;54.076;12.092;2023-03-22T02:59:29;108.88;;;53.85;;
46457;SDS011;32155;54.076;12.092;2023-03-22T03:06:13;106.32;;;50.72;;
46457;SDS011;32155;54.076;12.092;2023-03-22T03:32:13;98.50;;;50.35;;
46457;SDS011;32155;54.076;12.092;2023-03-22T03:43:47;98.50;;;50.10;;
46457;SDS011;32155;54.076;12.092;2023-03-22T03:46:17;92.78;;;48.50;;
46457;SDS011;32155;54.076;12.092;2023-03-22T03:48:45;83.32;;;47.00;;
46457;SDS011;32155;54.076;12.092;2023-03-22T03:51:13;86.93;;;46.63;;
46457;SDS011;32155;54.076;12.092;2023-03-22T03:53:41;97.97;;;47.45;;
46457;SDS011;32155;54.076;12.092;2023-03-22T03:56:09;80.93;;;47.03;;
46457;SDS011;32155;54.076;12.092;2023-03-22T04:05:10;83.43;;;45.63;;
46457;SDS011;32155;54.076;12.092;2023-03-22T04:17:48;72.55;;;43.97;;
46457;SDS011;32155;54.076;12.092;2023-03-22T04:21:14;80.22;;;44.72;;
46457;SDS011;32155;54.076;12.092;2023-03-22T04:24:07;80.30;;;44.50;;
46457;SDS011;32155;54.076;12.092;2023-03-22T04:27:12;73.20;;;43.47;;
46457;SDS011;32155;54.076;12.092;2023-03-22T04:51:43;77.82;;;41.20;;
46457;SDS011;32155;54.076;12.092;2023-03-22T05:01:11;70.60;;;40.80;;
46457;SDS011;32155;54.076;12.092;2023-03-22T05:04:13;77.13;;;42.22;;
46457;SDS011;32155;54.076;12.092;2023-03-22T05:06:50;75.55;;;41.58;;
46457;SDS011;32155;54.076;12.092;2023-03-22T05:09:24;68.57;;;40.33;;
46457;SDS011;32155;54.076;12.092;2023-03-22T05:15:18;69.03;;;40.38;;
46457;SDS011;32155;54.076;12.092;2023-03-22T05:18:37;65.43;;;39.58;;
46457;SDS011;32155;54.076;12.092;2023-03-22T05:25:58;67.20;;;39.90;;
46457;SDS011;32155;54.076;12.092;2023-03-22T05:29:38;70.30;;;38.60;;
46457;SDS011;32155;54.076;12.092;2023-03-22T05:32:29;59.47;;;37.22;;
46457;SDS011;32155;54.076;12.092;2023-03-22T05:35:21;58.63;;;37.05;;
46457;SDS011;32155;54.076;12.092;2023-03-22T05:37:58;59.80;;;36.72;;
46457;SDS011;32155;54.076;12.092;2023-03-22T05:40:49;61.38;;;36.22;;
46457;SDS011;32155;54.076;12.092;2023-03-22T05:43:56;54.97;;;33.10;;
46457;SDS011;32155;54.076;12.092;2023-03-22T05:46:28;58.30;;;33.88;;
46457;SDS011;32155;54.076;12.092;2023-03-22T05:49:13;55.45;;;34.00;;
46457;SDS011;32155;54.076;12.092;2023-03-22T05:51:47;54.75;;;33.90;;
46457;SDS011;32155;54.076;12.092;2023-03-22T05:54:12;52.88;;;33.72;;
46457;SDS011;32155;54.076;12.092;2023-03-22T05:56:38;51.83;;;31.42;;
46457;SDS011;32155;54.076;12.092;2023-03-22T05:59:04;44.58;;;29.83;;
46457;SDS011;32155;54.076;12.092;2023-03-22T06:01:35;44.55;;;29.08;;
46457;SDS011;32155;54.076;12.092;2023-03-22T06:04:02;45.60;;;29.33;;
46457;SDS011;32155;54.076;12.092;2023-03-22T06:06:28;48.78;;;30.05;;
46457;SDS011;32155;54.076;12.092;2023-03-22T06:08:53;47.50;;;29.52;;
46457;SDS011;32155;54.076;12.092;2023-03-22T06:11:20;45.97;;;29.10;;
46457;SDS011;32155;54.076;12.092;2023-03-22T06:13:49;43.20;;;28.55;;
46457;SDS011;32155;54.076;12.092;2023-03-22T06:16:15;42.72;;;26.55;;
46457;SDS011;32155;54.076;12.092;2023-03-22T06:18:43;42.70;;;26.52;;
46457;SDS011;32155;54.076;12.092;2023-03-22T06:21:10;43.78;;;26.77;;
46457;SDS011;32155;54.076;12.092;2023-03-22T06:23:39;40.53;;;25.42;;
46457;SDS011;32155;54.076;12.092;2023-03-22T06:26:05;40.35;;;25.58;;
46457;SDS011;32155;54.076;12.092;2023-03-22T06:28:36;38.13;;;25.85;;
46457;SDS011;32155;54.076;12.092;2023-03-22T06:31:06;39.63;;;25.02;;
46457;SDS011;32155;54.076;12.092;2023-03-22T06:33:34;30.05;;;22.63;;
46457;SDS011;32155;54.076;12.092;2023-03-22T06:36:00;36.97;;;21.77;;
46457;SDS011;32155;54.076;12.092;2023-03-22T06:38:27;37.78;;;21.75;;
46457;SDS011;32155;54.076;12.092;2023-03-22T06:40:53;30.10;;;20.27;;
46457;SDS011;32155;54.076;12.092;2023-03-22T06:43:19;31.02;;;19.83;;
46457;SDS011;32155;54.076;12.092;2023-03-22T06:45:45;27.70;;;18.35;;
46457;SDS011;32155;54.076;12.092;2023-03-22T06:48:13;31.88;;;17.95;;
46457;SDS011;32155;54.076;12.092;2023-03-22T06:50:39;27.42;;;18.10;;
46457;SDS011;32155;54.076;12.092;2023-03-22T06:53:05;23.15;;;16.85;;
46457;SDS011;32155;54.076;12.092;2023-03-22T06:55:34;28.40;;;17.88;;
46457;SDS011;32155;54.076;12.092;2023-03-22T06:58:00;21.88;;;15.45;;
46457;SDS011;32155;54.076;12.092;2023-03-22T07:00:26;28.98;;;17.25;;
46457;SDS011;32155;54.076;12.092;2023-03-22T07:02:53;25.92;;;15.50;;
46457;SDS011;32155;54.076;12.092;2023-03-22T07:05:19;23.58;;;15.82;;
46457;SDS011;32155;54.076;12.092;2023-03-22T07:07:45;23.85;;;14.38;;
46457;SDS011;32155;54.076;12.092;2023-03-22T07:10:13;20.80;;;13.73;;
46457;SDS011;32155;54.076;12.092;2023-03-22T07:12:38;19.70;;;12.07;;
46457;SDS011;32155;54.076;12.092;2023-03-22T07:15:04;15.60;;;11.32;;
46457;SDS011;32155;54.076;12.092;2023-03-22T07:17:30;14.70;;;10.02;;
46457;SDS011;32155;54.076;12.092;2023-03-22T07:19:56;14.85;;;9.27;;
46457;SDS011;32155;54.076;12.092;2023-03-22T07:22:22;15.77;;;9.90;;
46457;SDS011;32155;54.076;12.092;2023-03-22T07:24:52;17.38;;;10.40;;
46457;SDS011;32155;54.076;12.092;2023-03-22T07:27:17;17.48;;;10.57;;
46457;SDS011;32155;54.076;12.092;2023-03-22T07:29:45;15.32;;;11.05;;
46457;SDS011;32155;54.076;12.092;2023-03-22T07:32:11;16.90;;;11.63;;
46457;SDS011;32155;54.076;12.092;2023-03-22T07:34:37;18.67;;;12.20;;
46457;SDS011;32155;54.076;12.092;2023-03-22T07:37:04;21.67;;;12.85;;
46457;SDS011;32155;54.076;12.092;2023-03-22T07:39:30;23.20;;;12.88;;
46457;SDS011;32155;54.076;12.092;2023-03-22T07:41:56;26.52;;;12.88;;
46457;SDS011;32155;54.076;12.092;2023-03-22T07:44:22;21.88;;;12.35;;
46457;SDS011;32155;54.076;12.092;2023-03-22T07:46:50;17.30;;;12.48;;
46457;SDS011;32155;54.076;12.092;2023-03-22T07:49:30;22.55;;;11.57;;
46457;SDS011;32155;54.076;12.092;2023-03-22T07:52:04;23.83;;;12.15;;
46457;SDS011;32155;54.076;12.092;2023-03-22T07:54:33;16.42;;;11.35;;
46457;SDS011;32155;54.076;12.092;2023-03-22T07:57:15;18.90;;;10.98;;
46457;SDS011;32155;54.076;12.092;2023-03-22T08:00:02;17.20;;;10.68;;
46457;SDS011;32155;54.076;12.092;2023-03-22T08:02:56;18.02;;;11.10;;
46457;SDS011;32155;54.076;12.092;2023-03-22T08:09:11;18.67;;;10.43;;
46457;SDS011;32155;54.076;12.092;2023-03-22T08:11:48;17.13;;;10.00;;
46457;SDS011;32155;54.076;12.092;2023-03-22T08:14:29;18.35;;;9.27;;
46457;SDS011;32155;54.076;12.092;2023-03-22T08:19:34;14.88;;;8.30;;
46457;SDS011;32155;54.076;12.092;2023-03-22T08:22:10;15.07;;;8.38;;
46457;SDS011;32155;54.076;12.092;2023-03-22T08:24:44;17.38;;;8.13;;
46457;SDS011;32155;54.076;12.092;2023-03-22T08:27:15;16.00;;;8.57;;
46457;SDS011;32155;54.076;12.092;2023-03-22T08:33:23;15.50;;;8.15;;
46457;SDS011;32155;54.076;12.092;2023-03-22T08:42:34;16.92;;;8.40;;
46457;SDS011;32155;54.076;12.092;2023-03-22T08:49:06;27.45;;;9.30;;
46457;SDS011;32155;54.076;12.092;2023-03-22T11:17:20;13.50;;;7.93;;
46457;SDS011;32155;54.076;12.092;2023-03-22T11:21:00;15.68;;;7.90;;
46457;SDS011;32155;54.076;12.092;2023-03-22T11:24:43;15.05;;;8.35;;
46457;SDS011;32155;54.076;12.092;2023-03-22T11:27:54;13.55;;;7.60;;
46457;SDS011;32155;54.076;12.092;2023-03-22T11:31:13;18.50;;;9.45;;
46457;SDS011;32155;54.076;12.092;2023-03-22T11:35:10;14.27;;;8.30;;
46457;SDS011;32155;54.076;12.092;2023-03-22T11:41:26;12.90;;;7.82;;
46457;SDS011;32155;54.076;12.092;2023-03-22T11:44:32;12.68;;;8.23;;
46457;SDS011;32155;54.076;12.092;2023-03-22T11:47:40;17.67;;;9.23;;
46457;SDS011;32155;54.076;12.092;2023-03-22T11:50:36;16.50;;;8.70;;
46457;SDS011;32155;54.076;12.092;2023-03-22T11:53:42;17.73;;;9.30;;
46457;SDS011;32155;54.076;12.092;2023-03-22T11:56:29;15.50;;;9.02;;
46457;SDS011;32155;54.076;12.092;2023-03-22T12:00:07;14.90;;;8.40;;
46457;SDS011;32155;54.076;12.092;2023-03-22T12:03:57;17.90;;;9.20;;
46457;SDS011;32155;54.076;12.092;2023-03-22T12:06:32;15.57;;;7.32;;
46457;SDS011;32155;54.076;12.092;2023-03-22T12:12:21;13.05;;;7.90;;
46457;SDS011;32155;54.076;12.092;2023-03-22T12:15:20;14.35;;;7.07;;
46457;SDS011;32155;54.076;12.092;2023-03-22T12:18:18;17.08;;;7.95;;
46457;SDS011;32155;54.076;12.092;2023-03-22T12:21:41;16.40;;;8.10;;
46457;SDS011;32155;54.076;12.092;2023-03-22T12:26:59;15.10;;;7.25;;
46457;SDS011;32155;54.076;12.092;2023-03-22T12:29:52;11.63;;;6.75;;
46457;SDS011;32155;54.076;12.092;2023-03-22T12:32:52;15.55;;;7.75;;
46457;SDS011;32155;54.076;12.092;2023-03-22T12:36:03;15.57;;;7.18;;
46457;SDS011;32155;54.076;12.092;2023-03-22T12:39:05;14.32;;;6.72;;
46457;SDS011;32155;54.076;12.092;2023-03-22T12:42:26;15.57;;;6.60;;
46457;SDS011;32155;54.076;12.092;2023-03-22T12:48:37;15.75;;;6.32;;
46457;SDS011;32155;54.076;12.092;2023-03-22T12:52:12;14.63;;;5.93;;
46457;SDS011;32155;54.076;12.092;2023-03-22T13:15:32;8.93;;;4.07;;
46457;SDS011;32155;54.076;12.092;2023-03-22T13:28:20;11.50;;;3.08;;
46457;SDS011;32155;54.076;12.092;2023-03-22T13:31:19;7.13;;;3.30;;
46457;SDS011;32155;54.076;12.092;2023-03-22T13:34:20;9.27;;;3.03;;
46457;SDS011;32155;54.076;12.092;2023-03-22T13:37:30;8.70;;;2.90;;
46457;SDS011;32155;54.076;12.092;2023-03-22T13:58:33;11.70;;;3.78;;
46457;SDS011;32155;54.076;12.092;2023-03-22T14:01:28;10.55;;;2.97;;
46457;SDS011;32155;54.076;12.092;2023-03-22T14:07:35;8.57;;;3.00;;
46457;SDS011;32155;54.076;12.092;2023-03-22T14:10:21;8.23;;;2.75;;
46457;SDS011;32155;54.076;12.092;2023-03-22T14:13:09;12.38;;;2.70;;
46457;SDS011;32155;54.076;12.092;2023-03-22T14:15:44;9.77;;;2.72;;
46457;SDS011;32155;54.076;12.092;2023-03-22T14:18:27;8.80;;;3.20;;
46457;SDS011;32155;54.076;12.092;2023-03-22T14:21:00;7.40;;;2.92;;
46457;SDS011;32155;54.076;12.092;2023-03-22T14:24:03;9.32;;;2.75;;
46457;SDS011;32155;54.076;12.092;2023-03-22T14:27:27;11.82;;;3.38;;
46457;SDS011;32155;54.076;12.092;2023-03-22T14:37:58;10.13;;;2.92;;
46457;SDS011;32155;54.076;12.092;2023-03-22T14:40:31;9.55;;;2.47;;
46457;SDS011;32155;54.076;12.092;2023-03-22T14:46:48;7.68;;;2.20;;
46457;SDS011;32155;54.076;12.092;2023-03-22T14:50:16;6.25;;;2.35;;
46457;SDS011;32155;54.076;12.092;2023-03-22T14:53:14;9.73;;;2.67;;
46457;SDS011;32155;54.076;12.092;2023-03-22T14:55:48;9.98;;;2.42;;
46457;SDS011;32155;54.076;12.092;2023-03-22T14:58:55;9.52;;;2.60;;
46457;SDS011;32155;54.076;12.092;2023-03-22T15:01:35;7.10;;;2.15;;
46457;SDS011;32155;54.076;12.092;2023-03-22T15:04:14;10.18;;;2.45;;
46457;SDS011;32155;54.076;12.092;2023-03-22T15:06:47;11.90;;;2.50;;
46457;SDS011;32155;54.076;12.092;2023-03-22T15:13:01;9.02;;;2.88;;
46457;SDS011;32155;54.076;12.092;2023-03-22T15:15:31;8.73;;;2.35;;
46457;SDS011;32155;54.076;12.092;2023-03-22T15:18:00;8.07;;;2.38;;
46457;SDS011;32155;54.076;12.092;2023-03-22T15:20:32;8.30;;;3.38;;
46457;SDS011;32155;54.076;12.092;2023-03-22T15:25:39;6.55;;;2.70;;
46457;SDS011;32155;54.076;12.092;2023-03-22T15:28:10;10.38;;;3.08;;
46457;SDS011;32155;54.076;12.092;2023-03-22T15:30:47;5.00;;;2.30;;
46457;SDS011;32155;54.076;12.092;2023-03-22T15:33:22;6.13;;;2.30;;
46457;SDS011;32155;54.076;12.092;2023-03-22T15:35:54;6.40;;;2.70;;
46457;SDS011;32155;54.076;12.092;2023-03-22T15:38:31;6.60;;;2.97;;
46457;SDS011;32155;54.076;12.092;2023-03-22T15:41:25;6.40;;;2.53;;
46457;SDS011;32155;54.076;12.092;2023-03-22T15:44:04;9.07;;;3.42;;
46457;SDS011;32155;54.076;12.092;2023-03-22T15:46:47;9.27;;;2.97;;
46457;SDS011;32155;54.076;12.092;2023-03-22T15:52:29;7.57;;;2.83;;
46457;SDS011;32155;54.076;12.092;2023-03-22T15:57:25;6.82;;;2.70;;
46457;SDS011;32155;54.076;12.092;2023-03-22T16:03:00;7.13;;;2.60;;
46457;SDS011;32155;54.076;12.092;2023-03-22T16:05:39;7.75;;;2.25;;
46457;SDS011;32155;54.076;12.092;2023-03-22T16:08:10;5.50;;;2.30;;
46457;SDS011;32155;54.076;12.092;2023-03-22T16:10:39;4.97;;;2.35;;
46457;SDS011;32155;54.076;12.092;2023-03-22T16:13:18;7.28;;;2.60;;
46457;SDS011;32155;54.076;12.092;2023-03-22T16:15:47;5.38;;;2.30;;
46457;SDS011;32155;54.076;12.092;2023-03-22T16:18:24;6.07;;;2.58;;
46457;SDS011;32155;54.076;12.092;2023-03-22T16:20:50;8.23;;;3.15;;
46457;SDS011;32155;54.076;12.092;2023-03-22T16:23:21;8.68;;;3.42;;
46457;SDS011;32155;54.076;12.092;2023-03-22T16:25:48;5.40;;;2.55;;
46457;SDS011;32155;54.076;12.092;2023-03-22T16:28:14;7.90;;;2.45;;
46457;SDS011;32155;54.076;12.092;2023-03-22T16:30:40;8.65;;;3.00;;
46457;SDS011;32155;54.076;12.092;2023-03-22T16:33:14;11.05;;;3.80;;
46457;SDS011;32155;54.076;12.092;2023-03-22T16:35:44;7.75;;;2.70;;
46457;SDS011;32155;54.076;12.092;2023-03-22T16:38:11;11.43;;;3.10;;
46457;SDS011;32155;54.076;12.092;2023-03-22T16:40:43;5.70;;;2.60;;
46457;SDS011;32155;54.076;12.092;2023-03-22T16:43:35;9.38;;;2.92;;
46457;SDS011;32155;54.076;12.092;2023-03-22T16:46:08;6.47;;;2.83;;
46457;SDS011;32155;54.076;12.092;2023-03-22T16:48:39;7.78;;;2.92;;
46457;SDS011;32155;54.076;12.092;2023-03-22T16:51:54;11.63;;;2.95;;
46457;SDS011;32155;54.076;12.092;2023-03-22T16:54:45;8.75;;;3.00;;
46457;SDS011;32155;54.076;12.092;2023-03-22T16:57:29;5.97;;;2.67;;
46457;SDS011;32155;54.076;12.092;2023-03-22T17:00:04;5.72;;;2.50;;
46457;SDS011;32155;54.076;12.092;2023-03-22T17:02:33;5.22;;;2.53;;
46457;SDS011;32155;54.076;12.092;2023-03-22T17:05:00;6.60;;;3.13;;
46457;SDS011;32155;54.076;12.092;2023-03-22T17:07:30;5.78;;;2.85;;
46457;SDS011;32155;54.076;12.092;2023-03-22T17:09:58;7.72;;;2.58;;
46457;SDS011;32155;54.076;12.092;2023-03-22T17:12:26;7.90;;;2.40;;
46457;SDS011;32155;54.076;12.092;2023-03-22T17:14:55;8.95;;;2.83;;
46457;SDS011;32155;54.076;12.092;2023-03-22T17:17:22;11.35;;;2.88;;
46457;SDS011;32155;54.076;12.092;2023-03-22T17:19:51;8.48;;;2.70;;
46457;SDS011;32155;54.076;12.092;2023-03-22T17:22:18;7.22;;;3.08;;
46457;SDS011;32155;54.076;12.092;2023-03-22T17:24:45;6.47;;;2.53;;
46457;SDS011;32155;54.076;12.092;2023-03-22T17:27:11;9.05;;;3.38;;
46457;SDS011;32155;54.076;12.092;2023-03-22T17:29:40;9.48;;;3.33;;
46457;SDS011;32155;54.076;12.092;2023-03-22T17:32:13;8.02;;;3.47;;
46457;SDS011;32155;54.076;12.092;2023-03-22T17:34:40;10.85;;;3.55;;
46457;SDS011;32155;54.076;12.092;2023-03-22T17:37:07;11.23;;;3.78;;
46457;SDS011;32155;54.076;12.092;2023-03-22T17:39:36;7.18;;;2.60;;
46457;SDS011;32155;54.076;12.092;2023-03-22T17:42:05;7.85;;;2.90;;
46457;SDS011;32155;54.076;12.092;2023-03-22T17:44:32;6.80;;;2.85;;
46457;SDS011;32155;54.076;12.092;2023-03-22T17:46:58;5.05;;;2.50;;
46457;SDS011;32155;54.076;12.092;2023-03-22T17:49:25;6.50;;;2.28;;
46457;SDS011;32155;54.076;12.092;2023-03-22T17:51:53;7.90;;;2.03;;
46457;SDS011;32155;54.076;12.092;2023-03-22T17:54:21;5.72;;;2.65;;
46457;SDS011;32155;54.076;12.092;2023-03-22T17:56:47;6.70;;;2.25;;
46457;SDS011;32155;54.076;12.092;2023-03-22T17:59:15;7.32;;;2.90;;
46457;SDS011;32155;54.076;12.092;2023-03-22T18:01:41;6.13;;;2.22;;
46457;SDS011;32155;54.076;12.092;2023-03-22T18:04:06;11.68;;;3.17;;
46457;SDS011;32155;54.076;12.092;2023-03-22T18:06:39;5.80;;;2.28;;
46457;SDS011;32155;54.076;12.092;2023-03-22T18:09:05;5.50;;;2.17;;
46457;SDS011;32155;54.076;12.092;2023-03-22T18:11:33;7.13;;;2.28;;
46457;SDS011;32155;54.076;12.092;2023-03-22T18:13:59;4.80;;;2.42;;
46457;SDS011;32155;54.076;12.092;2023-03-22T18:16:29;8.70;;;2.92;;
46457;SDS011;32155;54.076;12.092;2023-03-22T18:18:55;7.05;;;2.85;;
46457;SDS011;32155;54.076;12.092;2023-03-22T18:21:27;7.28;;;2.28;;
46457;SDS011;32155;54.076;12.092;2023-03-22T18:23:56;7.10;;;2.42;;
46457;SDS011;32155;54.076;12.092;2023-03-22T18:26:22;5.82;;;2.30;;
46457;SDS011;32155;54.076;12.092;2023-03-22T18:28:54;5.13;;;2.60;;
46457;SDS011;32155;54.076;12.092;2023-03-22T18:31:19;8.73;;;2.47;;
46457;SDS011;32155;54.076;12.092;2023-03-22T18:33:46;9.13;;;2.50;;
46457;SDS011;32155;54.076;12.092;2023-03-22T18:36:14;5.75;;;2.47;;
46457;SDS011;32155;54.076;12.092;2023-03-22T18:38:40;3.95;;;2.38;;
46457;SDS011;32155;54.076;12.092;2023-03-22T18:41:09;5.82;;;2.30;;
46457;SDS011;32155;54.076;12.092;2023-03-22T18:43:37;4.75;;;2.33;;
46457;SDS011;32155;54.076;12.092;2023-03-22T18:46:10;6.35;;;2.58;;
46457;SDS011;32155;54.076;12.092;2023-03-22T18:48:39;6.35;;;2.83;;
46457;SDS011;32155;54.076;12.092;2023-03-22T18:51:05;5.30;;;2.50;;
46457;SDS011;32155;54.076;12.092;2023-03-22T18:53:35;6.28;;;2.42;;
46457;SDS011;32155;54.076;12.092;2023-03-22T18:56:01;6.32;;;2.38;;
46457;SDS011;32155;54.076;12.092;2023-03-22T18:58:30;8.98;;;2.67;;
46457;SDS011;32155;54.076;12.092;2023-03-22T19:00:56;6.88;;;2.53;;
46457;SDS011;32155;54.076;12.092;2023-03-22T19:03:26;9.25;;;2.58;;
46457;SDS011;32155;54.076;12.092;2023-03-22T19:06:01;7.38;;;2.50;;
46457;SDS011;32155;54.076;12.092;2023-03-22T19:08:27;6.57;;;2.47;;
46457;SDS011;32155;54.076;12.092;2023-03-22T19:10:56;10.02;;;2.78;;
46457;SDS011;32155;54.076;12.092;2023-03-22T19:13:21;6.22;;;2.67;;
46457;SDS011;32155;54.076;12.092;2023-03-22T19:15:47;6.20;;;2.78;;
46457;SDS011;32155;54.076;12.092;2023-03-22T19:18:15;7.38;;;2.70;;
46457;SDS011;32155;54.076;12.092;2023-03-22T19:20:43;6.25;;;2.60;;
46457;SDS011;32155;54.076;12.092;2023-03-22T19:23:08;8.70;;;3.25;;
46457;SDS011;32155;54.076;12.092;2023-03-22T19:25:34;9.73;;;2.92;;
46457;SDS011;32155;54.076;12.092;2023-03-22T19:28:00;5.25;;;2.85;;
46457;SDS011;32155;54.076;12.092;2023-03-22T19:30:26;6.35;;;2.88;;
46457;SDS011;32155;54.076;12.092;2023-03-22T19:32:51;12.70;;;3.13;;
46457;SDS011;32155;54.076;12.092;2023-03-22T19:35:19;10.00;;;3.80;;
46457;SDS011;32155;54.076;12.092;2023-03-22T19:37:45;4.88;;;2.55;;
46457;SDS011;32155;54.076;12.092;2023-03-22T19:40:11;8.23;;;3.05;;
46457;SDS011;32155;54.076;12.092;2023-03-22T19:42:37;7.07;;;2.90;;
46457;SDS011;32155;54.076;12.092;2023-03-22T19:45:03;9.30;;;3.15;;
46457;SDS011;32155;54.076;12.092;2023-03-22T19:47:30;7.50;;;2.70;;
46457;SDS011;32155;54.076;12.092;2023-03-22T19:49:57;6.35;;;2.95;;
46457;SDS011;32155;54.076;12.092;2023-03-22T19:52:22;7.97;;;3.45;;
46457;SDS011;32155;54.076;12.092;2023-03-22T19:54:48;10.30;;;3.60;;
46457;SDS011;32155;54.076;12.092;2023-03-22T19:57:14;7.63;;;3.03;;
46457;SDS011;32155;54.076;12.092;2023-03-22T19:59:40;7.53;;;2.80;;
46457;SDS011;32155;54.076;12.092;2023-03-22T20:02:05;6.55;;;2.63;;
46457;SDS011;32155;54.076;12.092;2023-03-22T20:04:31;5.38;;;2.60;;
46457;SDS011;32155;54.076;12.092;2023-03-22T20:06:57;8.05;;;2.78;;
46457;SDS011;32155;54.076;12.092;2023-03-22T20:09:23;8.57;;;2.97;;
46457;SDS011;32155;54.076;12.092;2023-03-22T20:11:51;8.50;;;2.83;;
46457;SDS011;32155;54.076;12.092;2023-03-22T20:14:17;6.35;;;2.90;;
46457;SDS011;32155;54.076;12.092;2023-03-22T20:16:45;7.43;;;2.45;;
46457;SDS011;32155;54.076;12.092;2023-03-22T20:19:11;8.68;;;2.45;;
46457;SDS011;32155;54.076;12.092;2023-03-22T20:21:37;8.50;;;2.30;;
46457;SDS011;32155;54.076;12.092;2023-03-22T20:24:05;7.47;;;2.58;;
46457;SDS011;32155;54.076;12.092;2023-03-22T20:26:32;10.13;;;2.75;;
46457;SDS011;32155;54.076;12.092;2023-03-22T20:29:02;11.90;;;2.65;;
46457;SDS011;32155;54.076;12.092;2023-03-22T20:31:29;7.93;;;2.58;;
46457;SDS011;32155;54.076;12.092;2023-03-22T20:33:58;6.95;;;2.42;;
46457;SDS011;32155;54.076;12.092;2023-03-22T20:36:26;4.50;;;2.78;;
46457;SDS011;32155;54.076;12.092;2023-03-22T20:38:52;7.78;;;2.67;;
46457;SDS011;32155;54.076;12.092;2023-03-22T20:41:18;5.65;;;2.47;;
46457;SDS011;32155;54.076;12.092;2023-03-22T20:43:44;7.10;;;2.67;;
46457;SDS011;32155;54.076;12.092;2023-03-22T20:46:13;8.02;;;2.75;;
46457;SDS011;32155;54.076;12.092;2023-03-22T20:48:39;6.82;;;2.67;;
46457;SDS011;32155;54.076;12.092;2023-03-22T20:51:08;7.82;;;2.90;;
46457;SDS011;32155;54.076;12.092;2023-03-22T20:53:34;8.38;;;2.75;;
46457;SDS011;32155;54.076;12.092;2023-03-22T20:56:00;4.95;;;2.33;;
46457;SDS011;32155;54.076;12.092;2023-03-22T20:58:25;8.00;;;2.97;;
46457;SDS011;32155;54.076;12.092;2023-03-22T21:00:51;6.88;;;2.97;;
46457;SDS011;32155;54.076;12.092;2023-03-22T21:03:17;12.55;;;3.10;;
46457;SDS011;32155;54.076;12.092;2023-03-22T21:05:44;6.80;;;2.70;;
46457;SDS011;32155;54.076;12.092;2023-03-22T21:08:11;9.48;;;2.55;;
46457;SDS011;32155;54.076;12.092;2023-03-22T21:10:39;10.15;;;2.75;;
46457;SDS011;32155;54.076;12.092;2023-03-22T21:13:11;6.18;;;3.55;;
46457;SDS011;32155;54.076;12.092;2023-03-22T21:26:20;7.97;;;2.80;;
46457;SDS011;32155;54.076;12.092;2023-03-22T21:28:45;6.22;;;2.83;;
46457;SDS011;32155;54.076;12.092;2023-03-22T21:31:11;6.38;;;2.92;;
46457;SDS011;32155;54.076;12.092;2023-03-22T21:33:47;7.75;;;3.17;;
46457;SDS011;32155;54.076;12.092;2023-03-22T21:36:15;7.60;;;2.95;;
46457;SDS011;32155;54.076;12.092;2023-03-22T21:38:41;8.45;;;2.90;;
46457;SDS011;32155;54.076;12.092;2023-03-22T21:41:18;8.43;;;2.90;;
46457;SDS011;32155;54.076;12.092;2023-03-22T21:43:48;13.75;;;3.47;;
46457;SDS011;32155;54.076;12.092;2023-03-22T21:46:18;9.00;;;2.80;;